Time;durP1;ratioP1;P1;durP2;ratioP2;P2;SDS_P1;SDS_P2;PMS_P1;PMS_P2;Temp;Humidity;BMP_temperature;BMP_pressure;BME280_temperature;BME280_humidity;BME280_pressure;Samples;Min_cycle;Max_cycle;Signal;HPM_P1;HPM_P2
2022/12/01 00:00:43;;;;;;;;;;;;;;;;;;4975933;29;19919;-92
2022/12/01 00:03:09;;;;;;;;;;;;;;;;;;4974558;29;19925;-92
2022/12/01 00:05:34;;;;;;;;;;;;;;;;;;4976703;28;19978;-93
2022/12/01 00:08:00;;;;;;;;;;;;;;;;;;4934425;29;19915;-91
2022/12/01 00:10:25;;;;;;;;;;;;;;;;;;4955412;29;19914;-92
2022/12/01 00:12:50;;;;;;;;;;;;;;;;;;4960330;28;20330;-91
2022/12/01 00:15:16;;;;;;;;;;;;;;;;;;4957126;29;20073;-91
2022/12/01 00:17:44;;;;;;;;;;;;;;;;;;4962992;29;19930;-88
2022/12/01 00:20:09;;;;;;;;;;;;;;;;;;4962828;28;19922;-89
2022/12/01 00:22:35;;;;;;;;;;;;;;;;;;4958606;29;19923;-92
2022/12/01 00:25:00;;;;;;;;;;;;;;;;;;4958083;29;19914;-90
2022/12/01 00:27:26;;;;;;;;;;;;;;;;;;4959260;29;19973;-90
2022/12/01 00:29:51;;;;;;;;;;;;;;;;;;4960162;29;20005;-91
2022/12/01 00:32:16;;;;;;;;;;;;;;;;;;4960118;28;20009;-92
2022/12/01 00:34:42;;;;;;;;;;;;;;;;;;4959725;29;19915;-90
2022/12/01 00:37:07;;;;;;;;;;;;;;;;;;4960357;29;19914;-91
2022/12/01 00:39:33;;;;;;;;;;;;;;;;;;4925279;29;19969;-91
2022/12/01 00:41:58;;;;;;;;;;;;;;;;;;4916481;29;20070;-92
2022/12/01 00:44:24;;;;;;;;;;;;;;;;;;4925910;29;19966;-92
2022/12/01 00:46:49;;;;;;;;;;;;;;;;;;4941024;29;20008;-90
2022/12/01 00:49:15;;;;;;;;;;;;;;;;;;4940222;29;19918;-89
2022/12/01 00:51:40;;;;;;;;;;;;;;;;;;4955167;29;19957;-89
2022/12/01 00:54:06;;;;;;;;;;;;;;;;;;4955130;29;19950;-90
2022/12/01 00:56:31;;;;;;;;;;;;;;;;;;4937912;29;20024;-91
2022/12/01 00:58:58;;;;;;;;;;;;;;;;;;4950977;29;19969;-90
2022/12/01 01:01:23;;;;;;;;;;;;;;;;;;4953303;29;19918;-89
2022/12/01 01:03:49;;;;;;;;;;;;;;;;;;4937086;29;19922;-92
2022/12/01 01:06:15;;;;;;;;;;;;;;;;;;4953542;29;19920;-87
2022/12/01 01:08:40;;;;;;;;;;;;;;;;;;4937532;29;19921;-90
2022/12/01 01:11:06;;;;;;;;;;;;;;;;;;4953559;29;20442;-90
2022/12/01 01:13:31;;;;;;;;;;;;;;;;;;4921919;29;19939;-91
2022/12/01 01:15:57;;;;;;;;;;;;;;;;;;4955211;29;19921;-89
2022/12/01 01:18:24;;;;;;;;;;;;;;;;;;4923885;29;19918;-90
2022/12/01 01:20:50;;;;;;;;;;;;;;;;;;4955172;29;19914;-87
2022/12/01 01:23:15;;;;;;;;;;;;;;;;;;4941325;29;20314;-89
2022/12/01 01:25:41;;;;;;;;;;;;;;;;;;4925115;29;19918;-89
2022/12/01 01:28:07;;;;;;;;;;;;;;;;;;4957245;29;19938;-91
2022/12/01 01:30:32;;;;;;;;;;;;;;;;;;4957124;29;19921;-87
2022/12/01 01:32:58;;;;;;;;;;;;;;;;;;4935651;29;20338;-89
2022/12/01 01:35:24;;;;;;;;;;;;;;;;;;4959290;28;19922;-89
2022/12/01 01:37:50;;;;;;;;;;;;;;;;;;4944553;29;19973;-88
2022/12/01 01:40:16;;;;;;;;;;;;;;;;;;4928981;29;19915;-87
2022/12/01 01:42:41;;;;;;;;;;;;;;;;;;4943442;29;20012;-89
2022/12/01 01:45:07;;;;;;;;;;;;;;;;;;4947013;29;20003;-91
2022/12/01 01:47:32;;;;;;;;;;;;;;;;;;4940849;29;20436;-87
2022/12/01 01:50:04;;;;;;;;;;;;;;;;;;4926639;29;19962;-88
2022/12/01 01:52:30;;;;;;;;;;;;;;;;;;4937460;29;19914;-91
2022/12/01 01:54:55;;;;;;;;;;;;;;;;;;4938289;29;19917;-91
2022/12/01 01:57:21;;;;;;;;;;;;;;;;;;4938340;29;19915;-89
2022/12/01 01:59:47;;;;;;;;;;;;;;;;;;4922174;29;19914;-92
2022/12/01 02:02:12;;;;;;;;;;;;;;;;;;4953483;29;20286;-91
2022/12/01 02:04:39;;;;;;;;;;;;;;;;;;4922154;29;19918;-88
2022/12/01 02:07:04;;;;;;;;;;;;;;;;;;4937541;29;19918;-89
2022/12/01 02:09:29;;;;;;;;;;;;;;;;;;4921445;29;19962;-89
2022/12/01 02:11:55;;;;;;;;;;;;;;;;;;4938552;29;19915;-91
2022/12/01 02:14:20;;;;;;;;;;;;;;;;;;4937100;23;19958;-81
2022/12/01 02:16:46;;;;;;;;;;;;;;;;;;4918380;29;19921;-82
2022/12/01 02:19:12;;;;;;;;;;;;;;;;;;4950159;29;19922;-82
2022/12/01 02:21:37;;;;;;;;;;;;;;;;;;4932487;29;20390;-82
2022/12/01 02:24:03;;;;;;;;;;;;;;;;;;4949530;29;19925;-82
2022/12/01 02:26:28;;;;;;;;;;;;;;;;;;4948852;29;19938;-82
2022/12/01 02:28:54;;;;;;;;;;;;;;;;;;4944510;29;19919;-81
2022/12/01 02:31:19;;;;;;;;;;;;;;;;;;4920305;29;19914;-82
2022/12/01 02:33:44;;;;;;;;;;;;;;;;;;4921829;29;20378;-82
2022/12/01 02:36:10;;;;;;;;;;;;;;;;;;4936973;29;19915;-82
2022/12/01 02:38:35;;;;;;;;;;;;;;;;;;4955277;29;19935;-82
2022/12/01 02:41:01;;;;;;;;;;;;;;;;;;4940310;29;19915;-82
2022/12/01 02:43:29;;;;;;;;;;;;;;;;;;4956861;29;19919;-83
2022/12/01 02:45:55;;;;;;;;;;;;;;;;;;4954944;29;20380;-82
2022/12/01 02:48:20;;;;;;;;;;;;;;;;;;4957443;29;19970;-82
2022/12/01 02:50:45;;;;;;;;;;;;;;;;;;4957303;29;19915;-82
2022/12/01 02:53:11;;;;;;;;;;;;;;;;;;4955955;29;19959;-82
2022/12/01 02:55:37;;;;;;;;;;;;;;;;;;4942138;29;19899;-83
2022/12/01 02:58:05;;;;;;;;;;;;;;;;;;4941382;29;20386;-82
2022/12/01 03:00:31;;;;;;;;;;;;;;;;;;4952350;29;19926;-82
2022/12/01 03:02:56;;;;;;;;;;;;;;;;;;4925213;29;19954;-83
2022/12/01 03:05:22;;;;;;;;;;;;;;;;;;4940208;29;20001;-82
2022/12/01 03:07:48;;;;;;;;;;;;;;;;;;4954962;29;19914;-82
2022/12/01 03:10:13;;;;;;;;;;;;;;;;;;4937169;29;19918;-81
2022/12/01 03:12:39;;;;;;;;;;;;;;;;;;4918216;29;19926;-82
2022/12/01 03:15:06;;;;;;;;;;;;;;;;;;4948648;29;19918;-82
2022/12/01 03:17:32;;;;;;;;;;;;;;;;;;4913436;29;19942;-82
2022/12/01 03:19:58;;;;;;;;;;;;;;;;;;4916099;29;19950;-82
2022/12/01 03:22:26;;;;;;;;;;;;;;;;;;4930868;29;19930;-82
2022/12/01 03:24:52;;;;;;;;;;;;;;;;;;4931780;29;19915;-82
2022/12/01 03:27:17;;;;;;;;;;;;;;;;;;4931277;29;19914;-82
2022/12/01 03:29:43;;;;;;;;;;;;;;;;;;4930417;29;20001;-82
2022/12/01 03:32:08;;;;;;;;;;;;;;;;;;4900661;29;19922;-81
2022/12/01 03:34:34;;;;;;;;;;;;;;;;;;4935178;29;19929;-82
2022/12/01 03:37:00;;;;;;;;;;;;;;;;;;4914689;29;20379;-82
2022/12/01 03:39:25;;;;;;;;;;;;;;;;;;4930527;29;19915;-82
2022/12/01 03:41:51;;;;;;;;;;;;;;;;;;4930824;29;19915;-82
2022/12/01 03:44:16;;;;;;;;;;;;;;;;;;4915520;29;19919;-82
2022/12/01 03:46:43;;;;;;;;;;;;;;;;;;4916423;29;19915;-82
2022/12/01 03:49:09;;;;;;;;;;;;;;;;;;4930961;29;19922;-82
2022/12/01 03:51:34;;;;;;;;;;;;;;;;;;4931456;29;19919;-81
2022/12/01 03:54:00;;;;;;;;;;;;;;;;;;4911905;29;19951;-81
2022/12/01 03:56:25;;;;;;;;;;;;;;;;;;4930895;29;19914;-82
2022/12/01 03:58:53;;;;;;;;;;;;;;;;;;4947242;29;19914;-82
2022/12/01 04:01:21;;;;;;;;;;;;;;;;;;4946043;29;20027;-83
2022/12/01 04:03:46;;;;;;;;;;;;;;;;;;4919178;29;20009;-82
2022/12/01 04:06:12;;;;;;;;;;;;;;;;;;4919306;29;19910;-82
2022/12/01 04:08:38;;;;;;;;;;;;;;;;;;4935846;29;19915;-83
2022/12/01 04:12:28;;;;;;;;;;;;;;;;;;4929843;29;19949;-81
2022/12/01 04:13:48;;;;;;;;;;;;;;;;;;4931154;29;19946;-83
2022/12/01 04:16:14;;;;;;;;;;;;;;;;;;4916286;29;19919;-82
2022/12/01 04:18:39;;;;;;;;;;;;;;;;;;4912617;29;19974;-81
2022/12/01 04:21:05;;;;;;;;;;;;;;;;;;4918509;29;20363;-81
2022/12/01 04:26:15;;;;;;;;;;;;;;;;;;4922248;29;19915;-82
2022/12/01 04:28:41;;;;;;;;;;;;;;;;;;4919379;29;19983;-82
2022/12/01 04:31:06;;;;;;;;;;;;;;;;;;4903097;29;19926;-81
2022/12/01 04:33:32;;;;;;;;;;;;;;;;;;4918615;29;19919;-83
2022/12/01 04:35:57;;;;;;;;;;;;;;;;;;4929836;29;19916;-81
2022/12/01 04:38:23;;;;;;;;;;;;;;;;;;4929538;29;19915;-82
2022/12/01 04:40:49;;;;;;;;;;;;;;;;;;4928184;29;19911;-82
2022/12/01 04:43:14;;;;;;;;;;;;;;;;;;4895294;29;19929;-81
2022/12/01 04:45:40;;;;;;;;;;;;;;;;;;4897724;29;19915;-81
2022/12/01 04:48:05;;;;;;;;;;;;;;;;;;4913060;29;19915;-82
2022/12/01 04:50:31;;;;;;;;;;;;;;;;;;4898918;29;19921;-83
2022/12/01 04:52:56;;;;;;;;;;;;;;;;;;4945289;29;19915;-82
2022/12/01 04:55:22;;;;;;;;;;;;;;;;;;4912921;29;20375;-81
2022/12/01 04:57:47;;;;;;;;;;;;;;;;;;4927737;29;19915;-81
2022/12/01 05:00:13;;;;;;;;;;;;;;;;;;4929520;29;19955;-82
2022/12/01 05:02:41;;;;;;;;;;;;;;;;;;4927865;29;20418;-83
2022/12/01 05:05:07;;;;;;;;;;;;;;;;;;4942825;29;19923;-81
2022/12/01 05:07:32;;;;;;;;;;;;;;;;;;4945774;29;19915;-82
2022/12/01 05:09:58;;;;;;;;;;;;;;;;;;4928905;29;19915;-81
2022/12/01 05:12:24;;;;;;;;;;;;;;;;;;4927410;29;19919;-82
2022/12/01 05:14:49;;;;;;;;;;;;;;;;;;4927466;29;19919;-82
2022/12/01 05:17:15;;;;;;;;;;;;;;;;;;4926650;29;19915;-82
2022/12/01 05:22:26;;;;;;;;;;;;;;;;;;4943971;29;19923;-82
2022/12/01 05:24:52;;;;;;;;;;;;;;;;;;4898498;29;19916;-82
2022/12/01 05:27:17;;;;;;;;;;;;;;;;;;4929986;29;20002;-82
2022/12/01 05:29:45;;;;;;;;;;;;;;;;;;4915680;29;20443;-81
2022/12/01 05:32:14;;;;;;;;;;;;;;;;;;4903837;29;19922;-81
2022/12/01 05:34:39;;;;;;;;;;;;;;;;;;4915791;29;20364;-82
2022/12/01 05:37:05;;;;;;;;;;;;;;;;;;4913539;29;19911;-82
2022/12/01 05:39:31;;;;;;;;;;;;;;;;;;4929097;29;19915;-82
2022/12/01 05:41:56;;;;;;;;;;;;;;;;;;4924956;29;19961;-81
2022/12/01 05:44:22;;;;;;;;;;;;;;;;;;4912128;29;19926;-82
2022/12/01 05:46:47;;;;;;;;;;;;;;;;;;4930229;29;19922;-82
2022/12/01 05:49:13;;;;;;;;;;;;;;;;;;4909186;29;20359;-82
2022/12/01 05:51:38;;;;;;;;;;;;;;;;;;4914704;29;19919;-82
2022/12/01 05:54:04;;;;;;;;;;;;;;;;;;4932022;29;19966;-83
2022/12/01 05:56:29;;;;;;;;;;;;;;;;;;4938956;29;19922;-82
2022/12/01 05:58:54;;;;;;;;;;;;;;;;;;4931686;29;19978;-81
2022/12/01 06:01:20;;;;;;;;;;;;;;;;;;4914619;29;19914;-81
2022/12/01 06:03:45;;;;;;;;;;;;;;;;;;4934884;29;19919;-84
2022/12/01 06:06:11;;;;;;;;;;;;;;;;;;4936332;29;19939;-83
2022/12/01 06:08:36;;;;;;;;;;;;;;;;;;4920173;29;19958;-83
2022/12/01 06:11:02;;;;;;;;;;;;;;;;;;4951396;29;20409;-81
2022/12/01 06:13:27;;;;;;;;;;;;;;;;;;4956058;29;19915;-81
2022/12/01 06:15:53;;;;;;;;;;;;;;;;;;4953898;29;19906;-82
2022/12/01 06:18:18;;;;;;;;;;;;;;;;;;4920676;29;20379;-82
2022/12/01 06:20:44;;;;;;;;;;;;;;;;;;4954801;29;19919;-82
2022/12/01 06:23:09;;;;;;;;;;;;;;;;;;4934757;29;19926;-82
2022/12/01 06:25:38;;;;;;;;;;;;;;;;;;4924120;29;19918;-83
2022/12/01 06:28:03;;;;;;;;;;;;;;;;;;4940087;29;19925;-82
2022/12/01 06:30:29;;;;;;;;;;;;;;;;;;4955592;29;19930;-82
2022/12/01 06:32:55;;;;;;;;;;;;;;;;;;4955292;29;19954;-82
2022/12/01 06:35:20;;;;;;;;;;;;;;;;;;4938484;29;19982;-82
2022/12/01 06:37:46;;;;;;;;;;;;;;;;;;4954203;29;19981;-83
2022/12/01 06:40:11;;;;;;;;;;;;;;;;;;4917725;29;19950;-83
2022/12/01 06:42:37;;;;;;;;;;;;;;;;;;4936364;29;19908;-82
2022/12/01 06:45:03;;;;;;;;;;;;;;;;;;4921101;29;19945;-82
2022/12/01 06:47:29;;;;;;;;;;;;;;;;;;4938308;29;19915;-82
2022/12/01 06:49:55;;;;;;;;;;;;;;;;;;4906129;29;19982;-82
2022/12/01 06:52:20;;;;;;;;;;;;;;;;;;4921411;29;19934;-82
2022/12/01 06:54:46;;;;;;;;;;;;;;;;;;4937607;29;19963;-83
2022/12/01 06:57:12;;;;;;;;;;;;;;;;;;4951929;29;20243;-83
2022/12/01 06:59:37;;;;;;;;;;;;;;;;;;4907366;29;19921;-83
2022/12/01 07:02:03;;;;;;;;;;;;;;;;;;4953641;29;19919;-83
2022/12/01 07:04:29;;;;;;;;;;;;;;;;;;4936092;29;19986;-83
2022/12/01 07:06:54;;;;;;;;;;;;;;;;;;4936484;29;19954;-82
2022/12/01 07:09:20;;;;;;;;;;;;;;;;;;4937292;29;19921;-82
2022/12/01 07:11:46;;;;;;;;;;;;;;;;;;4921771;29;19900;-82
2022/12/01 07:14:12;;;;;;;;;;;;;;;;;;4921495;29;19955;-82
2022/12/01 07:16:37;;;;;;;;;;;;;;;;;;4921646;29;19917;-82
2022/12/01 07:19:03;;;;;;;;;;;;;;;;;;4919635;29;19915;-83
2022/12/01 07:21:29;;;;;;;;;;;;;;;;;;4936221;29;19939;-82
2022/12/01 07:23:55;;;;;;;;;;;;;;;;;;4935277;29;19925;-82
2022/12/01 07:26:20;;;;;;;;;;;;;;;;;;4921377;29;19915;-82
2022/12/01 07:28:48;;;;;;;;;;;;;;;;;;4919279;29;20006;-82
2022/12/01 07:31:14;;;;;;;;;;;;;;;;;;4952903;29;19923;-82
2022/12/01 07:33:39;;;;;;;;;;;;;;;;;;4945482;29;20402;-84
2022/12/01 07:36:05;;;;;;;;;;;;;;;;;;4939124;29;19915;-81
2022/12/01 07:38:30;;;;;;;;;;;;;;;;;;4921874;29;19914;-82
2022/12/01 07:40:56;;;;;;;;;;;;;;;;;;4936492;29;19922;-81
2022/12/01 07:43:21;;;;;;;;;;;;;;;;;;4919860;29;20592;-82
2022/12/01 07:45:48;;;;;;;;;;;;;;;;;;4948965;29;19921;-81
2022/12/01 07:48:16;;;;;;;;;;;;;;;;;;4937579;29;19915;-81
2022/12/01 07:50:41;;;;;;;;;;;;;;;;;;4916488;29;19947;-82
2022/12/01 07:53:07;;;;;;;;;;;;;;;;;;4902965;29;19979;-83
2022/12/01 07:55:32;;;;;;;;;;;;;;;;;;4904060;29;19946;-81
2022/12/01 07:57:58;;;;;;;;;;;;;;;;;;4904619;29;19899;-82
2022/12/01 08:00:24;;;;;;;;;;;;;;;;;;4938807;29;19961;-82
2022/12/01 08:02:52;;;;;;;;;;;;;;;;;;4921984;29;19926;-81
2022/12/01 08:05:18;;;;;;;;;;;;;;;;;;4937273;29;19915;-82
2022/12/01 08:07:46;;;;;;;;;;;;;;;;;;4916529;29;19915;-82
2022/12/01 08:10:11;;;;;;;;;;;;;;;;;;4930542;29;19922;-82
2022/12/01 08:12:37;;;;;;;;;;;;;;;;;;4919227;29;19919;-82
2022/12/01 08:15:05;;;;;;;;;;;;;;;;;;4951139;29;20469;-82
2022/12/01 08:17:31;;;;;;;;;;;;;;;;;;4923078;29;19938;-81
2022/12/01 08:19:56;;;;;;;;;;;;;;;;;;4938436;29;19915;-81
2022/12/01 08:22:22;;;;;;;;;;;;;;;;;;4941023;29;19915;-81
2022/12/01 08:24:48;;;;;;;;;;;;;;;;;;4939040;29;19903;-84
2022/12/01 08:27:14;;;;;;;;;;;;;;;;;;4941590;29;19926;-85
2022/12/01 08:29:40;;;;;;;;;;;;;;;;;;4934705;29;19986;-81
2022/12/01 08:32:07;;;;;;;;;;;;;;;;;;4913841;29;19922;-81
2022/12/01 08:34:32;;;;;;;;;;;;;;;;;;4902323;29;19915;-82
2022/12/01 08:36:58;;;;;;;;;;;;;;;;;;4930046;29;19934;-83
2022/12/01 08:39:23;;;;;;;;;;;;;;;;;;4939521;29;19983;-84
2022/12/01 08:41:50;;;;;;;;;;;;;;;;;;4938378;29;20006;-82
2022/12/01 08:44:15;;;;;;;;;;;;;;;;;;4945981;29;19965;-82
2022/12/01 08:46:41;;;;;;;;;;;;;;;;;;4945047;29;19922;-82
2022/12/01 08:49:06;;;;;;;;;;;;;;;;;;4929045;29;19915;-83
2022/12/01 08:51:32;;;;;;;;;;;;;;;;;;4912000;29;19922;-83
2022/12/01 08:53:57;;;;;;;;;;;;;;;;;;4944578;29;19915;-83
2022/12/01 08:56:23;;;;;;;;;;;;;;;;;;4940979;29;20361;-82
2022/12/01 08:58:49;;;;;;;;;;;;;;;;;;4931794;29;20374;-82
2022/12/01 09:01:15;;;;;;;;;;;;;;;;;;4920865;29;19914;-81
2022/12/01 09:03:40;;;;;;;;;;;;;;;;;;4935427;29;19919;-81
2022/12/01 09:06:06;;;;;;;;;;;;;;;;;;4927567;29;20014;-81
2022/12/01 09:08:31;;;;;;;;;;;;;;;;;;4935904;29;20510;-81
2022/12/01 09:10:57;;;;;;;;;;;;;;;;;;4936282;29;19922;-81
2022/12/01 09:13:22;;;;;;;;;;;;;;;;;;4918406;29;19963;-81
2022/12/01 09:15:48;;;;;;;;;;;;;;;;;;4920004;29;19922;-81
2022/12/01 09:18:13;;;;;;;;;;;;;;;;;;4944323;29;19926;-76
2022/12/01 09:20:38;;;;;;;;;;;;;;;;;;4935868;29;20362;-76
2022/12/01 09:23:04;;;;;;;;;;;;;;;;;;4935230;29;20370;-75
2022/12/01 09:25:29;;;;;;;;;;;;;;;;;;4937665;29;19906;-82
2022/12/01 09:27:55;;;;;;;;;;;;;;;;;;4921525;29;19915;-81
2022/12/01 09:30:20;;;;;;;;;;;;;;;;;;4937242;29;19915;-81
2022/12/01 09:32:45;;;;;;;;;;;;;;;;;;4936057;29;19915;-81
2022/12/01 09:35:11;;;;;;;;;;;;;;;;;;4938116;29;19914;-80
2022/12/01 09:37:36;;;;;;;;;;;;;;;;;;4931836;29;20319;-81
2022/12/01 09:40:02;;;;;;;;;;;;;;;;;;4903368;29;20298;-81
2022/12/01 09:42:27;;;;;;;;;;;;;;;;;;4936268;29;19922;-81
2022/12/01 09:44:53;;;;;;;;;;;;;;;;;;4938112;29;20268;-81
2022/12/01 09:47:18;;;;;;;;;;;;;;;;;;4943097;29;19915;-81
2022/12/01 09:49:44;;;;;;;;;;;;;;;;;;4945534;29;19914;-82
2022/12/01 09:52:09;;;;;;;;;;;;;;;;;;4943720;29;19950;-81
2022/12/01 09:54:37;;;;;;;;;;;;;;;;;;4944593;29;19915;-82
2022/12/01 09:57:02;;;;;;;;;;;;;;;;;;4942542;29;19938;-82
2022/12/01 09:59:28;;;;;;;;;;;;;;;;;;4944471;29;19994;-82
2022/12/01 10:01:58;;;;;;;;;;;;;;;;;;4944076;29;19915;-82
2022/12/01 10:04:23;;;;;;;;;;;;;;;;;;4943513;29;19919;-82
2022/12/01 10:06:48;;;;;;;;;;;;;;;;;;4945345;29;20299;-82
2022/12/01 10:09:14;;;;;;;;;;;;;;;;;;4946645;29;20402;-82
2022/12/01 10:11:39;;;;;;;;;;;;;;;;;;4931449;29;20310;-82
2022/12/01 10:14:05;;;;;;;;;;;;;;;;;;4946920;29;19979;-82
2022/12/01 10:16:30;;;;;;;;;;;;;;;;;;4947742;29;19918;-82
2022/12/01 10:18:56;;;;;;;;;;;;;;;;;;4948769;29;19961;-83
2022/12/01 10:21:31;;;;;;;;;;;;;;;;;;;;;
2022/12/01 10:23:58;;;;;;;;;;;;;;;;;;4926092;29;19974;-82
2022/12/01 10:26:27;;;;;;;;;;;;;;;;;;4941324;29;19918;-82
2022/12/01 10:28:53;;;;;;;;;;;;;;;;;;4943775;29;19915;-82
2022/12/01 10:31:19;;;;;;;;;;;;;;;;;;4941008;29;20291;-83
2022/12/01 10:33:47;;;;;;;;;;;;;;;;;;4945338;29;20378;-83
2022/12/01 10:36:12;;;;;;;;;;;;;;;;;;4933160;29;19946;-82
2022/12/01 10:38:38;;;;;;;;;;;;;;;;;;4952101;29;19915;-84
2022/12/01 10:41:03;;;;;;;;;;;;;;;;;;4951533;29;19922;-83
2022/12/01 10:43:29;;;;;;;;;;;;;;;;;;4951009;29;19918;-83
2022/12/01 10:45:54;;;;;;;;;;;;;;;;;;4950932;29;19926;-83
2022/12/01 10:48:20;;;;;;;;;;;;;;;;;;4949966;29;19915;-82
2022/12/01 10:50:45;;;;;;;;;;;;;;;;;;4941872;29;19922;-81
2022/12/01 10:53:11;;;;;;;;;;;;;;;;;;4930597;29;19915;-83
2022/12/01 10:55:36;;;;;;;;;;;;;;;;;;4945843;29;19919;-82
2022/12/01 10:58:01;;;;;;;;;;;;;;;;;;4947949;29;19950;-83
2022/12/01 11:00:27;;;;;;;;;;;;;;;;;;4933326;29;19961;-82
2022/12/01 11:02:52;;;;;;;;;;;;;;;;;;4948141;29;19926;-82
2022/12/01 11:05:18;;;;;;;;;;;;;;;;;;4947993;29;19922;-82
2022/12/01 11:07:43;;;;;;;;;;;;;;;;;;4945580;29;19921;-82
2022/12/01 11:10:09;;;;;;;;;;;;;;;;;;4944597;29;19915;-82
2022/12/01 11:12:34;;;;;;;;;;;;;;;;;;4928289;29;20449;-81
2022/12/01 11:15:00;;;;;;;;;;;;;;;;;;4945636;29;19918;-82
2022/12/01 11:17:26;;;;;;;;;;;;;;;;;;4946001;29;19921;-82
2022/12/01 11:19:51;;;;;;;;;;;;;;;;;;4943399;29;19947;-82
2022/12/01 11:22:16;;;;;;;;;;;;;;;;;;4943610;29;20252;-83
2022/12/01 11:24:42;;;;;;;;;;;;;;;;;;4947185;29;19949;-83
2022/12/01 11:27:07;;;;;;;;;;;;;;;;;;4945790;29;19929;-83
2022/12/01 11:29:34;;;;;;;;;;;;;;;;;;4962578;29;19983;-83
2022/12/01 11:32:00;;;;;;;;;;;;;;;;;;4942389;29;19922;-82
2022/12/01 11:34:25;;;;;;;;;;;;;;;;;;4945654;29;19914;-82
2022/12/01 11:36:51;;;;;;;;;;;;;;;;;;4942508;29;19915;-82
2022/12/01 11:39:16;;;;;;;;;;;;;;;;;;4944062;29;19915;-83
2022/12/01 11:41:42;;;;;;;;;;;;;;;;;;4939804;29;20402;-81
2022/12/01 11:44:07;;;;;;;;;;;;;;;;;;4947609;29;20014;-82
2022/12/01 11:46:32;;;;;;;;;;;;;;;;;;4947278;29;20362;-83
2022/12/01 11:48:58;;;;;;;;;;;;;;;;;;4950062;29;19911;-83
2022/12/01 11:51:25;;;;;;;;;;;;;;;;;;4970920;29;19921;-84
2022/12/01 11:53:53;;;;;;;;;;;;;;;;;;4955191;29;19921;-83
2022/12/01 11:56:21;;;;;;;;;;;;;;;;;;4958198;29;19942;-84
2022/12/01 11:58:47;;;;;;;;;;;;;;;;;;4957592;29;19921;-84
2022/12/01 12:01:15;;;;;;;;;;;;;;;;;;4940162;29;19926;-84
2022/12/01 12:03:41;;;;;;;;;;;;;;;;;;4956057;29;20383;-84
2022/12/01 12:06:07;;;;;;;;;;;;;;;;;;4935462;29;19921;-82
2022/12/01 12:08:33;;;;;;;;;;;;;;;;;;4947001;29;19922;-82
2022/12/01 12:10:59;;;;;;;;;;;;;;;;;;4949859;29;20306;-82
2022/12/01 12:13:28;;;;;;;;;;;;;;;;;;4944160;29;19926;-81
2022/12/01 12:15:53;;;;;;;;;;;;;;;;;;4925934;29;19923;-80
2022/12/01 12:18:19;;;;;;;;;;;;;;;;;;4940112;29;19921;-81
2022/12/01 12:20:44;;;;;;;;;;;;;;;;;;4942724;29;19918;-81
2022/12/01 12:23:09;;;;;;;;;;;;;;;;;;4942343;29;19950;-81
2022/12/01 12:25:35;;;;;;;;;;;;;;;;;;4944777;29;19914;-81
2022/12/01 12:28:01;;;;;;;;;;;;;;;;;;4947238;29;19992;-82
2022/12/01 12:30:26;;;;;;;;;;;;;;;;;;4950380;29;19925;-83
2022/12/01 12:32:52;;;;;;;;;;;;;;;;;;4936157;29;19938;-83
2022/12/01 12:35:17;;;;;;;;;;;;;;;;;;4950971;29;19961;-82
2022/12/01 12:37:43;;;;;;;;;;;;;;;;;;4948453;29;19911;-81
2022/12/01 12:40:08;;;;;;;;;;;;;;;;;;4945722;29;19918;-82
2022/12/01 12:42:34;;;;;;;;;;;;;;;;;;4948354;29;19919;-82
2022/12/01 12:45:02;;;;;;;;;;;;;;;;;;4961612;29;19915;-82
2022/12/01 12:47:28;;;;;;;;;;;;;;;;;;4934859;29;19942;-82
2022/12/01 12:49:54;;;;;;;;;;;;;;;;;;4948995;29;19915;-82
2022/12/01 12:52:19;;;;;;;;;;;;;;;;;;4947568;29;19922;-82
2022/12/01 12:54:45;;;;;;;;;;;;;;;;;;4954006;29;20375;-83
2022/12/01 12:57:13;;;;;;;;;;;;;;;;;;4951682;29;19922;-82
2022/12/01 12:59:38;;;;;;;;;;;;;;;;;;4947318;29;19915;-82
2022/12/01 13:02:04;;;;;;;;;;;;;;;;;;4948485;29;19974;-82
2022/12/01 13:04:30;;;;;;;;;;;;;;;;;;4952049;29;20009;-82
2022/12/01 13:06:56;;;;;;;;;;;;;;;;;;4936666;29;19915;-83
2022/12/01 13:09:33;;;;;;;;;;;;;;;;;;4927262;29;19958;-82
2022/12/01 13:12:00;;;;;;;;;;;;;;;;;;4953133;29;19915;-84
2022/12/01 13:14:29;;;;;;;;;;;;;;;;;;4957625;29;19914;-83
2022/12/01 13:17:00;;;;;;;;;;;;;;;;;;4927131;29;19923;-84
2022/12/01 13:19:27;;;;;;;;;;;;;;;;;;4943186;29;19907;-84
2022/12/01 13:21:55;;;;;;;;;;;;;;;;;;4924135;29;19911;-84
2022/12/01 13:24:22;;;;;;;;;;;;;;;;;;4940131;29;19919;-83
2022/12/01 13:26:49;;;;;;;;;;;;;;;;;;4924288;29;20391;-83
2022/12/01 13:29:17;;;;;;;;;;;;;;;;;;4936865;29;19907;-82
2022/12/01 13:31:43;;;;;;;;;;;;;;;;;;4969085;29;19915;-82
2022/12/01 13:34:09;;;;;;;;;;;;;;;;;;4966199;29;19918;-83
2022/12/01 13:36:34;;;;;;;;;;;;;;;;;;4940537;29;19942;-84
2022/12/01 13:39:04;;;;;;;;;;;;;;;;;;4956583;29;19949;-83
2022/12/01 13:41:39;;;;;;;;;;;;;;;;;;4966906;29;19918;-82
2022/12/01 13:44:04;;;;;;;;;;;;;;;;;;4920406;29;19991;-83
2022/12/01 13:46:30;;;;;;;;;;;;;;;;;;4953530;29;19927;-84
2022/12/01 13:48:55;;;;;;;;;;;;;;;;;;4952494;29;19942;-83
2022/12/01 13:51:21;;;;;;;;;;;;;;;;;;4937672;29;19915;-84
2022/12/01 13:53:47;;;;;;;;;;;;;;;;;;4940606;29;19962;-82
2022/12/01 13:56:12;;;;;;;;;;;;;;;;;;4940846;29;19911;-83
2022/12/01 13:58:38;;;;;;;;;;;;;;;;;;4941494;29;19978;-83
2022/12/01 14:01:04;;;;;;;;;;;;;;;;;;4940499;29;19919;-83
2022/12/01 14:03:30;;;;;;;;;;;;;;;;;;4923891;29;19903;-83
2022/12/01 14:05:58;;;;;;;;;;;;;;;;;;4921241;29;19968;-82
2022/12/01 14:08:24;;;;;;;;;;;;;;;;;;4946138;29;19958;-82
2022/12/01 14:10:52;;;;;;;;;;;;;;;;;;4939965;29;19979;-83
2022/12/01 14:13:20;;;;;;;;;;;;;;;;;;4955223;29;19915;-84
2022/12/01 14:15:45;;;;;;;;;;;;;;;;;;4954100;29;19918;-82
2022/12/01 14:18:11;;;;;;;;;;;;;;;;;;4949475;29;19942;-82
2022/12/01 14:20:37;;;;;;;;;;;;;;;;;;4933213;29;19931;-82
2022/12/01 14:23:02;;;;;;;;;;;;;;;;;;4937243;29;20279;-82
2022/12/01 14:25:31;;;;;;;;;;;;;;;;;;4939181;29;19970;-82
2022/12/01 14:27:57;;;;;;;;;;;;;;;;;;4972131;29;19965;-83
2022/12/01 14:30:26;;;;;;;;;;;;;;;;;;4955100;29;19934;-82
2022/12/01 14:32:52;;;;;;;;;;;;;;;;;;4925530;29;19915;-82
2022/12/01 14:35:20;;;;;;;;;;;;;;;;;;4925618;29;19921;-83
2022/12/01 14:37:47;;;;;;;;;;;;;;;;;;4910981;29;19963;-83
2022/12/01 14:40:13;;;;;;;;;;;;;;;;;;4940235;29;19978;-84
2022/12/01 14:45:29;;;;;;;;;;;;;;;;;;4942379;29;19919;-84
2022/12/01 14:47:58;;;;;;;;;;;;;;;;;;4915101;29;19903;-82
2022/12/01 14:50:24;;;;;;;;;;;;;;;;;;4945088;29;19966;-84
2022/12/01 14:52:50;;;;;;;;;;;;;;;;;;4961278;29;19899;-83
2022/12/01 14:55:15;;;;;;;;;;;;;;;;;;4960137;29;19923;-83
2022/12/01 14:57:41;;;;;;;;;;;;;;;;;;4944919;29;19919;-84
2022/12/01 15:00:10;;;;;;;;;;;;;;;;;;4945477;29;19946;-84
2022/12/01 15:02:43;;;;;;;;;;;;;;;;;;4960874;29;19961;-82
2022/12/01 15:05:10;;;;;;;;;;;;;;;;;;4961827;28;19906;-84
2022/12/01 15:07:38;;;;;;;;;;;;;;;;;;4943706;29;20028;-83
2022/12/01 15:10:05;;;;;;;;;;;;;;;;;;4945040;29;19902;-84
2022/12/01 15:12:33;;;;;;;;;;;;;;;;;;4977073;28;19926;-85
2022/12/01 15:15:01;;;;;;;;;;;;;;;;;;4946081;29;19906;-84
2022/12/01 15:17:27;;;;;;;;;;;;;;;;;;4960813;28;19926;-83
2022/12/01 15:19:53;;;;;;;;;;;;;;;;;;4975705;29;19958;-83
2022/12/01 15:22:21;;;;;;;;;;;;;;;;;;4974896;29;19923;-83
2022/12/01 15:24:48;;;;;;;;;;;;;;;;;;4958824;29;19919;-82
2022/12/01 15:27:14;;;;;;;;;;;;;;;;;;4925694;29;19922;-83
2022/12/01 15:29:41;;;;;;;;;;;;;;;;;;4954670;29;19925;-84
2022/12/01 15:32:07;;;;;;;;;;;;;;;;;;4939682;29;19911;-83
2022/12/01 15:34:33;;;;;;;;;;;;;;;;;;4936740;29;19921;-82
2022/12/01 15:36:58;;;;;;;;;;;;;;;;;;4954534;29;19962;-83
2022/12/01 15:39:24;;;;;;;;;;;;;;;;;;4950359;29;19918;-84
2022/12/01 15:41:52;;;;;;;;;;;;;;;;;;4937376;29;19911;-82
2022/12/01 15:44:18;;;;;;;;;;;;;;;;;;4955428;29;19919;-84
2022/12/01 15:46:44;;;;;;;;;;;;;;;;;;4955864;29;19899;-83
2022/12/01 15:49:10;;;;;;;;;;;;;;;;;;4937447;29;19942;-84
2022/12/01 15:51:35;;;;;;;;;;;;;;;;;;4952273;29;19922;-84
2022/12/01 15:54:03;;;;;;;;;;;;;;;;;;4939463;29;19912;-84
2022/12/01 15:56:28;;;;;;;;;;;;;;;;;;4932881;29;19929;-84
2022/12/01 15:58:54;;;;;;;;;;;;;;;;;;4939493;29;19941;-84
2022/12/01 16:01:19;;;;;;;;;;;;;;;;;;4957077;29;19918;-83
2022/12/01 16:03:45;;;;;;;;;;;;;;;;;;4920851;29;19919;-83
2022/12/01 16:06:11;;;;;;;;;;;;;;;;;;4955654;29;19919;-84
2022/12/01 16:08:36;;;;;;;;;;;;;;;;;;4955379;29;20407;-86
2022/12/01 16:11:05;;;;;;;;;;;;;;;;;;4949867;29;19918;-85
2022/12/01 16:13:31;;;;;;;;;;;;;;;;;;4940948;29;19922;-83
2022/12/01 16:15:57;;;;;;;;;;;;;;;;;;4941007;29;19929;-84
2022/12/01 16:18:22;;;;;;;;;;;;;;;;;;4958712;29;19903;-84
2022/12/01 16:20:48;;;;;;;;;;;;;;;;;;4957319;29;19935;-84
2022/12/01 16:23:14;;;;;;;;;;;;;;;;;;4941875;29;19923;-85
2022/12/01 16:25:42;;;;;;;;;;;;;;;;;;4956470;29;19914;-84
2022/12/01 16:28:07;;;;;;;;;;;;;;;;;;4955384;29;19957;-83
2022/12/01 16:30:33;;;;;;;;;;;;;;;;;;4923225;29;19915;-84
2022/12/01 16:32:59;;;;;;;;;;;;;;;;;;4950978;29;19982;-83
2022/12/01 16:35:26;;;;;;;;;;;;;;;;;;4936283;29;19962;-83
2022/12/01 16:37:52;;;;;;;;;;;;;;;;;;4951626;29;19953;-82
2022/12/01 16:40:17;;;;;;;;;;;;;;;;;;4950658;29;19911;-82
2022/12/01 16:42:43;;;;;;;;;;;;;;;;;;4939991;29;19914;-83
2022/12/01 16:45:09;;;;;;;;;;;;;;;;;;4918244;29;19949;-82